Time,TemperatureF,DewpointF,PressureIn,WindDirection,WindDirectionDegrees,WindSpeedMPH,WindSpeedGustMPH,Humidity,HourlyPrecipIn,Conditions,Clouds,dailyrainin,SoftwareType,DateUTC
2013-06-27 00:01:00,83.0,-99.9,30.04,ESE,111,7.0,11.0,-999,-99.99,,,-99.99,,2013-06-27 04:01:00,
2013-06-27 00:11:00,83.0,-99.9,30.04,ESE,119,4.0,9.0,-999,-99.99,,,-99.99,,2013-06-27 04:11:00,
2013-06-27 00:33:00,82.0,-99.9,30.03,SE,127,5.0,9.0,-999,-99.99,,,-99.99,,2013-06-27 04:33:00,
2013-06-27 00:42:00,82.0,-99.9,30.02,SE,125,4.0,9.0,-999,-99.99,,,-99.99,,2013-06-27 04:42:00,
2013-06-27 01:02:00,82.0,-99.9,30.01,SE,131,6.0,9.0,-999,-99.99,,,-99.99,,2013-06-27 05:02:00,
2013-06-27 01:12:00,82.0,-99.9,30.01,SE,137,4.0,7.0,-999,-99.99,,,-99.99,,2013-06-27 05:12:00,
2013-06-27 01:53:00,82.0,-99.9,30.00,SE,143,3.0,10.0,-999,-99.99,,,-99.99,,2013-06-27 05:53:00,
2013-06-27 02:02:00,82.0,-99.9,30.00,SE,146,5.0,9.0,-999,-99.99,,,-99.99,,2013-06-27 06:02:00,
2013-06-27 02:12:00,82.0,-99.9,29.99,SE,146,4.0,9.0,-999,-99.99,,,-99.99,,2013-06-27 06:12:00,
2013-06-27 02:34:00,82.0,-99.9,29.99,SSE,150,6.0,9.0,-999,-99.99,,,-99.99,,2013-06-27 06:34:00,
2013-06-27 02:43:00,82.0,-99.9,29.99,SE,139,5.0,8.0,-999,-99.99,,,-99.99,,2013-06-27 06:43:00,
2013-06-27 03:02:00,82.0,-99.9,29.99,SSE,150,4.0,9.0,-999,-99.99,,,-99.99,,2013-06-27 07:02:00,
2013-06-27 03:12:00,82.0,-99.9,29.99,SE,135,4.0,7.0,-999,-99.99,,,-99.99,,2013-06-27 07:12:00,
2013-06-27 03:34:00,82.0,-99.9,29.98,SE,144,5.0,8.0,-999,-99.99,,,-99.99,,2013-06-27 07:34:00,
2013-06-27 03:43:00,82.0,-99.9,29.98,SE,138,4.0,9.0,-999,-99.99,,,-99.99,,2013-06-27 07:43:00,
2013-06-27 03:52:00,82.0,-99.9,29.98,SSE,148,5.0,9.0,-999,-99.99,,,-99.99,,2013-06-27 07:52:00,
2013-06-27 04:01:00,82.0,-99.9,29.98,SSE,148,5.0,9.0,-999,-99.99,,,-99.99,,2013-06-27 08:01:00,
2013-06-27 04:34:00,82.0,-99.9,29.97,SE,139,4.0,7.0,-999,-99.99,,,-99.99,,2013-06-27 08:34:00,
2013-06-27 04:44:00,82.0,-99.9,29.97,SE,131,3.0,7.0,-999,-99.99,,,-99.99,,2013-06-27 08:44:00,
2013-06-27 04:52:00,82.0,-99.9,29.98,SE,128,4.0,7.0,-999,-99.99,,,-99.99,,2013-06-27 08:52:00,
2013-06-27 05:02:00,82.0,-99.9,29.98,SE,144,2.0,4.0,-999,-99.99,,,-99.99,,2013-06-27 09:02:00,
2013-06-27 05:53:00,82.0,-99.9,29.98,SE,139,2.0,3.0,-999,-99.99,,,-99.99,,2013-06-27 09:53:00,
2013-06-27 06:44:00,80.0,-99.9,29.98,South,185,2.0,6.0,-999,-99.99,,,-99.99,,2013-06-27 10:44:00,
2013-06-27 07:12:00,82.0,-99.9,29.99,SE,141,2.0,6.0,-999,-99.99,,,-99.99,,2013-06-27 11:12:00,
2013-06-27 07:22:00,82.0,-99.9,29.99,SE,129,4.0,6.0,-999,-99.99,,,-99.99,,2013-06-27 11:22:00,
2013-06-27 07:43:00,82.0,-99.9,30.00,SE,130,4.0,6.0,-999,-99.99,,,-99.99,,2013-06-27 11:43:00,
2013-06-27 08:42:00,85.0,-99.9,30.02,ESE,102,3.0,6.0,-999,-99.99,,,-99.99,,2013-06-27 12:42:00,
2013-06-27 09:01:00,85.0,-99.9,30.02,East,93,6.0,10.0,-999,-99.99,,,-99.99,,2013-06-27 13:01:00,
2013-06-27 09:11:00,85.0,-99.9,30.02,East,93,6.0,10.0,-999,-99.99,,,-99.99,,2013-06-27 13:11:00,
2013-06-27 10:22:00,86.0,-99.9,30.02,SE,132,4.0,9.0,-999,-99.99,,,-99.99,,2013-06-27 14:22:00,
2013-06-27 10:33:00,86.0,-99.9,30.02,ESE,117,5.0,6.0,-999,-99.99,,,-99.99,,2013-06-27 14:33:00,
2013-06-27 10:52:00,85.0,-99.9,30.03,SE,131,6.0,9.0,-999,-99.99,,,-99.99,,2013-06-27 14:52:00,
2013-06-27 11:01:00,85.0,-99.9,30.03,SE,137,6.0,9.0,-999,-99.99,,,-99.99,,2013-06-27 15:01:00,
2013-06-27 11:22:00,86.0,-99.9,30.03,ESE,122,5.0,10.0,-999,-99.99,,,-99.99,,2013-06-27 15:22:00,
2013-06-27 11:42:00,86.0,-99.9,30.03,ENE,75,7.0,9.0,-999,-99.99,,,-99.99,,2013-06-27 15:42:00,
2013-06-27 12:02:00,85.0,-99.9,30.03,ESE,105,6.0,10.0,-999,-99.99,,,-99.99,,2013-06-27 16:02:00,
2013-06-27 12:43:00,86.0,-99.9,30.02,ESE,102,5.0,9.0,-999,-99.99,,,-99.99,,2013-06-27 16:43:00,
2013-06-27 13:02:00,86.0,-99.9,30.02,ESE,108,5.0,11.0,-999,-99.99,,,-99.99,,2013-06-27 17:02:00,
2013-06-27 13:11:00,86.0,-99.9,30.03,East,99,6.0,9.0,-999,-99.99,,,-99.99,,2013-06-27 17:11:00,
2013-06-27 13:22:00,86.0,-99.9,30.02,ESE,106,7.0,11.0,-999,-99.99,,,-99.99,,2013-06-27 17:22:00,
2013-06-27 13:43:00,86.0,-99.9,30.02,SE,144,6.0,9.0,-999,-99.99,,,-99.99,,2013-06-27 17:43:00,
2013-06-27 14:44:00,84.0,-99.9,30.02,NNE,26,2.0,5.0,-999,-99.99,,,-99.99,,2013-06-27 18:44:00,
2013-06-27 15:11:00,83.0,-99.9,30.03,WNW,303,7.0,11.0,-999,-99.99,,,-99.99,,2013-06-27 19:11:00,
2013-06-27 16:02:00,83.0,-99.9,30.00,East,80,3.0,6.0,-999,-99.99,,,-99.99,,2013-06-27 20:02:00,
2013-06-27 17:16:00,82.0,-99.9,29.97,ENE,64,11.0,14.0,-999,-99.99,,,-99.99,,2013-06-27 21:16:00,
2013-06-27 17:36:00,83.0,-99.9,29.97,East,80,8.0,10.0,-999,-99.99,,,-99.99,,2013-06-27 21:36:00,
2013-06-27 17:50:00,83.0,-99.9,29.96,East,86,8.0,10.0,-999,-99.99,,,-99.99,,2013-06-27 21:50:00,
2013-06-27 17:57:00,83.0,-99.9,29.96,East,86,8.0,10.0,-999,-99.99,,,-99.99,,2013-06-27 21:57:00,
2013-06-27 18:25:00,84.0,-99.9,29.96,ENE,69,5.0,8.0,-999,-99.99,,,-99.99,,2013-06-27 22:25:00,
2013-06-27 18:36:00,83.0,-99.9,29.96,NE,45,9.0,11.0,-999,-99.99,,,-99.99,,2013-06-27 22:36:00,
2013-06-27 18:58:00,83.0,-99.9,29.96,NE,42,7.0,9.0,-999,-99.99,,,-99.99,,2013-06-27 22:58:00,
2013-06-27 19:17:00,83.0,-99.9,29.96,NE,49,10.0,11.0,-999,-99.99,,,-99.99,,2013-06-27 23:17:00,
2013-06-27 19:36:00,83.0,-99.9,29.97,NE,46,8.0,10.0,-999,-99.99,,,-99.99,,2013-06-27 23:36:00,
2013-06-27 19:48:00,83.0,-99.9,29.98,ENE,64,7.0,9.0,-999,-99.99,,,-99.99,,2013-06-27 23:48:00,
2013-06-27 19:59:00,84.0,-99.9,29.98,NE,54,7.0,9.0,-999,-99.99,,,-99.99,,2013-06-27 23:59:00,
2013-06-27 20:16:00,83.0,-99.9,29.97,ENE,75,7.0,9.0,-999,-99.99,,,-99.99,,2013-06-28 00:16:00,
2013-06-27 20:31:00,84.0,-99.9,29.97,East,81,5.0,8.0,-999,-99.99,,,-99.99,,2013-06-28 00:31:00,
2013-06-27 20:38:00,84.0,-99.9,29.97,ENE,76,6.0,8.0,-999,-99.99,,,-99.99,,2013-06-28 00:38:00,
2013-06-27 20:46:00,83.0,-99.9,29.97,East,83,4.0,6.0,-999,-99.99,,,-99.99,,2013-06-28 00:46:00,
2013-06-27 20:56:00,83.0,-99.9,29.97,East,80,5.0,7.0,-999,-99.99,,,-99.99,,2013-06-28 00:56:00,
2013-06-27 21:09:00,83.0,-99.9,29.97,ENE,75,5.0,6.0,-999,-99.99,,,-99.99,,2013-06-28 01:09:00,
2013-06-27 21:15:00,83.0,-99.9,29.97,ENE,72,5.0,8.0,-999,-99.99,,,-99.99,,2013-06-28 01:15:00,
2013-06-27 22:08:00,83.0,-99.9,29.96,East,94,4.0,6.0,-999,-99.99,,,-99.99,,2013-06-28 02:08:00,
2013-06-27 22:50:00,83.0,-99.9,29.97,ESE,118,4.0,8.0,-999,-99.99,,,-99.99,,2013-06-28 02:50:00,
2013-06-27 23:14:00,83.0,-99.9,29.97,ESE,113,5.0,11.0,-999,-99.99,,,-99.99,,2013-06-28 03:14:00,
2013-06-27 23:28:00,83.0,-99.9,29.98,ESE,105,3.0,7.0,-999,-99.99,,,-99.99,,2013-06-28 03:28:00,